Time;durP1;ratioP1;P1;durP2;ratioP2;P2;SDS_P1;SDS_P2;PMS_P1;PMS_P2;Temp;Humidity;BMP_temperature;BMP_pressure;BME280_temperature;BME280_humidity;BME280_pressure;Samples;Min_cycle;Max_cycle;Signal;HPM_P1;HPM_P2
2022/03/04 00:01:27;;;;;;;16.70;6.95;;;;;;;8.81;100.00;101392.63;5087346;28;20051;-85
2022/03/04 00:03:54;;;;;;;15.50;6.53;;;;;;;8.46;100.00;101328.91;5086860;28;20098;-85
2022/03/04 00:06:21;;;;;;;21.65;8.88;;;;;;;8.50;100.00;101324.50;5087738;28;20383;-85
2022/03/04 00:08:49;;;;;;;17.67;6.80;;;;;;;9.04;100.00;101397.38;5091876;28;20405;-85
2022/03/04 00:11:17;;;;;;;15.70;6.85;;;;;;;9.12;100.00;101402.47;5089883;28;20155;-85
2022/03/04 00:13:44;;;;;;;16.98;7.68;;;;;;;8.76;100.00;101391.84;5090899;28;20393;-85
2022/03/04 00:16:11;;;;;;;17.77;7.78;;;;;;;8.60;100.00;101380.84;5107413;28;20055;-85
2022/03/04 00:18:38;;;;;;;18.48;7.32;;;;;;;8.21;100.00;101395.44;5090786;28;20047;-85
2022/03/04 00:21:07;;;;;;;15.52;6.63;;;;;;;8.79;100.00;101407.47;5089374;28;20044;-85
2022/03/04 00:23:33;;;;;;;19.55;9.23;;;;;;;8.64;100.00;101394.69;5091279;28;20047;-85
2022/03/04 00:26:01;;;;;;;17.95;7.78;;;;;;;8.84;100.00;101387.34;5090971;28;20673;-85
2022/03/04 00:28:28;;;;;;;16.05;6.00;;;;;;;8.68;100.00;101397.22;5090562;28;20048;-85
2022/03/04 00:30:55;;;;;;;14.07;5.40;;;;;;;8.72;100.00;101382.34;5089246;28;20494;-85
2022/03/04 00:33:22;;;;;;;15.93;6.55;;;;;;;8.46;100.00;101386.31;5090788;28;20488;-86
2022/03/04 00:35:52;;;;;;;14.77;6.55;;;;;;;8.50;100.00;101376.69;5092443;28;20054;-84
2022/03/04 00:38:18;;;;;;;19.55;7.07;;;;;;;8.48;100.00;101384.56;5074352;28;20058;-85
2022/03/04 00:40:45;;;;;;;12.75;4.63;;;;;;;8.81;100.00;101369.13;5077222;28;20478;-85
2022/03/04 00:43:12;;;;;;;15.95;6.72;;;;;;;8.82;100.00;101368.25;5107917;28;20822;-85
2022/03/04 00:45:39;;;;;;;15.85;5.43;;;;;;;8.87;100.00;101366.41;5090614;28;20131;-85
2022/03/04 00:48:05;;;;;;;14.95;4.55;;;;;;;8.86;100.00;101364.66;5091018;28;20044;-85
2022/03/04 00:50:32;;;;;;;18.00;6.05;;;;;;;8.78;100.00;101358.72;5090909;28;20048;-85
2022/03/04 00:53:01;;;;;;;14.05;5.38;;;;;;;8.36;100.00;101356.03;5107226;28;20052;-85
2022/03/04 00:55:28;;;;;;;13.82;4.85;;;;;;;8.65;100.00;101359.88;5090878;28;20048;-86
2022/03/04 00:57:55;;;;;;;28.30;6.68;;;;;;;8.63;100.00;101374.72;5107546;28;20512;-85
2022/03/04 01:00:22;;;;;;;12.65;3.90;;;;;;;8.77;100.00;101366.63;5087064;28;20059;-85
2022/03/04 01:02:48;;;;;;;12.68;3.88;;;;;;;8.81;100.00;101357.81;5091007;28;20563;-85
2022/03/04 01:05:15;;;;;;;16.52;5.38;;;;;;;8.68;100.00;101368.50;5072064;28;20053;-85
2022/03/04 01:07:43;;;;;;;17.40;6.03;;;;;;;8.23;100.00;101360.59;5098477;28;20076;-85
2022/03/04 01:10:10;;;;;;;16.73;6.82;;;;;;;8.29;100.00;101364.88;5091353;28;20494;-85
2022/03/04 01:12:37;;;;;;;14.43;4.55;;;;;;;8.50;100.00;101382.78;5092824;28;20044;-85
2022/03/04 01:15:04;;;;;;;13.82;4.95;;;;;;;8.57;100.00;101340.88;5094354;28;20166;-85
2022/03/04 01:17:31;;;;;;;13.35;4.38;;;;;;;7.97;100.00;101366.28;5094959;28;20083;-85
2022/03/04 01:19:58;;;;;;;12.27;4.43;;;;;;;8.45;100.00;101373.31;5093783;28;20062;-85
2022/03/04 01:22:25;;;;;;;15.73;4.90;;;;;;;8.34;100.00;101369.13;5093063;28;20052;-85
2022/03/04 01:24:53;;;;;;;13.90;5.53;;;;;;;8.38;100.00;101376.91;5094401;28;20048;-84
2022/03/04 01:27:20;;;;;;;13.68;5.07;;;;;;;8.39;100.00;101384.66;5094573;28;20054;-85
2022/03/04 01:29:47;;;;;;;10.75;4.18;;;;;;;8.38;100.00;101362.09;5093971;28;20058;-85
2022/03/04 01:32:14;;;;;;;14.70;3.90;;;;;;;8.11;100.00;101351.25;5108949;28;20079;-85
2022/03/04 01:34:41;;;;;;;10.65;3.83;;;;;;;8.06;100.00;101367.88;5092682;28;20074;-85
2022/03/04 01:37:09;;;;;;;12.10;4.55;;;;;;;8.06;100.00;101384.38;5086857;28;20076;-86
2022/03/04 01:39:36;;;;;;;14.65;4.60;;;;;;;8.38;100.00;101387.34;5074532;28;20575;-85
2022/03/04 01:42:03;;;;;;;10.75;3.85;;;;;;;8.11;100.00;101379.06;5090299;28;20058;-85
2022/03/04 01:44:30;;;;;;;10.75;3.55;;;;;;;8.42;100.00;101365.50;5093592;28;20056;-85
2022/03/04 01:46:57;;;;;;;13.18;3.63;;;;;;;8.35;100.00;101364.75;5093608;28;20117;-85
2022/03/04 01:49:25;;;;;;;9.70;2.92;;;;;;;8.50;100.00;101356.69;5095074;28;20666;-86
2022/03/04 01:51:52;;;;;;;8.65;3.08;;;;;;;8.57;100.00;101365.25;5092482;28;20052;-85
2022/03/04 01:54:18;;;;;;;11.38;2.88;;;;;;;8.16;100.00;101364.22;5094913;28;20497;-86
2022/03/04 01:56:45;;;;;;;10.50;3.08;;;;;;;8.42;100.00;101361.16;5093498;28;20058;-85
2022/03/04 01:59:12;;;;;;;10.13;3.65;;;;;;;8.46;100.00;101365.44;5109962;28;20052;-85
2022/03/04 02:01:39;;;;;;;9.82;2.60;;;;;;;8.29;100.00;101380.53;5101122;28;20051;-86
2022/03/04 02:04:06;;;;;;;10.55;3.50;;;;;;;8.25;100.00;101366.69;5114363;27;20079;-86
2022/03/04 02:06:32;;;;;;;8.10;2.70;;;;;;;8.11;100.00;101379.06;5074817;28;20049;-86
2022/03/04 02:08:59;;;;;;;8.32;2.13;;;;;;;8.25;100.00;101363.19;5093649;28;20048;-86
2022/03/04 02:11:26;;;;;;;7.63;2.60;;;;;;;8.43;100.00;101390.72;5092117;28;20044;-85
2022/03/04 02:13:53;;;;;;;7.10;2.00;;;;;;;8.32;100.00;101368.28;5078416;28;20044;-86
2022/03/04 02:16:29;;;;;;;6.15;2.10;;;;;;;8.67;100.00;101374.59;5083393;28;20044;-86
2022/03/04 02:18:55;;;;;;;6.25;1.95;;;;;;;7.96;100.00;101369.78;5090037;28;20473;-86
2022/03/04 02:21:23;;;;;;;7.20;1.95;;;;;;;8.65;100.00;101363.34;5101085;28;20054;-86
2022/03/04 02:23:50;;;;;;;7.90;2.35;;;;;;;8.11;100.00;101384.28;5092020;28;20379;-86
2022/03/04 02:26:17;;;;;;;8.35;2.33;;;;;;;8.08;100.00;101340.88;5093033;28;20139;-86
2022/03/04 02:28:44;;;;;;;6.05;1.60;;;;;;;8.16;100.00;101348.56;5093405;28;20060;-86
2022/03/04 02:31:16;;;;;;;6.80;1.60;;;;;;;8.07;100.00;101367.84;5095825;28;20047;-86
2022/03/04 02:33:43;;;;;;;4.45;1.50;;;;;;;8.29;100.00;101342.25;5105099;28;20151;-85
2022/03/04 02:36:11;;;;;;;8.25;1.75;;;;;;;8.26;100.00;101367.53;5092837;28;20090;-86
2022/03/04 02:38:38;;;;;;;10.93;2.10;;;;;;;7.76;100.00;101372.72;5093061;28;20062;-86
2022/03/04 02:41:05;;;;;;;7.40;2.42;;;;;;;7.75;100.00;101365.75;5093080;28;20668;-85
2022/03/04 02:43:32;;;;;;;6.35;1.70;;;;;;;8.21;100.00;101370.22;5092541;28;20054;-86
2022/03/04 02:45:58;;;;;;;9.73;4.60;;;;;;;8.42;100.00;101378.56;5092554;28;20052;-87
2022/03/04 02:48:26;;;;;;;9.82;2.15;;;;;;;8.57;100.00;101375.69;5092681;28;20055;-86
2022/03/04 02:50:52;;;;;;;7.82;1.70;;;;;;;8.06;100.00;101363.53;5108036;28;20052;-86
2022/03/04 02:53:19;;;;;;;6.03;1.92;;;;;;;8.07;100.00;101367.84;5092352;28;20091;-89
2022/03/04 02:55:46;;;;;;;4.53;1.48;;;;;;;8.16;100.00;101367.69;5084827;28;20054;-88
2022/03/04 02:58:12;;;;;;;7.50;1.83;;;;;;;8.26;100.00;101372.75;5072977;28;20063;-88
2022/03/04 03:00:39;;;;;;;5.75;1.73;;;;;;;7.87;100.00;101360.34;5080168;28;20130;-87
2022/03/04 03:03:06;;;;;;;7.30;2.08;;;;;;;8.00;100.00;101374.03;5093464;28;20048;-88
2022/03/04 03:05:34;;;;;;;8.52;1.77;;;;;;;7.66;100.00;101338.09;5093538;28;20138;-89
2022/03/04 03:08:00;;;;;;;5.03;1.50;;;;;;;8.12;100.00;101344.28;5093587;28;20458;-88
2022/03/04 03:10:27;;;;;;;6.72;1.83;;;;;;;8.10;100.00;101330.41;5093749;28;20048;-88
2022/03/04 03:12:54;;;;;;;8.48;1.88;;;;;;;8.09;100.00;101375.63;5093473;28;20465;-87
2022/03/04 03:15:21;;;;;;;5.70;1.70;;;;;;;7.96;100.00;101360.19;5093730;28;20076;-88
2022/03/04 03:17:48;;;;;;;5.80;1.48;;;;;;;8.15;100.00;101375.53;5082581;28;20056;-88
2022/03/04 03:20:14;;;;;;;9.20;1.77;;;;;;;8.12;100.00;101354.72;5074789;28;20048;-85
2022/03/04 03:22:41;;;;;;;5.65;1.38;;;;;;;8.33;100.00;101376.97;5093382;28;20048;-85
2022/03/04 03:25:09;;;;;;;5.80;1.73;;;;;;;7.97;100.00;101372.34;5108490;28;20043;-85
2022/03/04 03:27:36;;;;;;;6.55;1.65;;;;;;;7.88;100.00;101364.69;5091965;28;20131;-85
2022/03/04 03:30:05;;;;;;;8.15;1.63;;;;;;;8.15;100.00;101365.97;5090618;28;20048;-83
2022/03/04 03:32:32;;;;;;;7.60;1.60;;;;;;;7.84;100.00;101370.81;5092005;28;20370;-84
2022/03/04 03:34:59;;;;;;;9.13;1.60;;;;;;;8.12;100.00;101366.00;5091682;28;20051;-85
2022/03/04 03:37:26;;;;;;;7.72;1.63;;;;;;;8.13;100.00;101378.19;5108494;28;20154;-85
2022/03/04 03:39:53;;;;;;;7.93;2.03;;;;;;;8.12;100.00;101368.63;5092730;28;20062;-85
2022/03/04 03:42:20;;;;;;;7.22;1.52;;;;;;;8.19;100.00;101369.38;5091247;28;20051;-85
2022/03/04 03:44:47;;;;;;;7.10;2.20;;;;;;;7.96;100.00;101373.22;5108153;28;20054;-85
2022/03/04 03:47:13;;;;;;;6.70;1.42;;;;;;;8.14;100.00;101363.38;5092155;28;20054;-86
2022/03/04 03:49:40;;;;;;;4.95;1.55;;;;;;;7.71;100.00;101357.13;5091630;28;20063;-86
2022/03/04 03:52:07;;;;;;;6.97;2.08;;;;;;;7.85;100.00;101362.13;5072040;28;20052;-86
2022/03/04 03:54:34;;;;;;;9.40;1.77;;;;;;;7.94;100.00;101355.91;5087326;28;20479;-86
2022/03/04 03:57:01;;;;;;;5.45;1.58;;;;;;;7.93;100.00;101365.47;5085805;28;20056;-85
2022/03/04 03:59:28;;;;;;;5.43;1.67;;;;;;;8.05;100.00;101379.19;5090481;28;20405;-85
2022/03/04 04:01:54;;;;;;;11.18;1.80;;;;;;;7.54;100.00;101318.31;5072343;28;20497;-85
2022/03/04 04:04:21;;;;;;;5.95;1.52;;;;;;;8.05;100.00;101374.81;5080657;28;20062;-85
2022/03/04 04:06:48;;;;;;;7.75;1.60;;;;;;;8.11;100.00;101342.56;5087136;28;20044;-83
2022/03/04 04:09:15;;;;;;;11.68;2.00;;;;;;;8.31;100.00;101365.69;5090161;28;20402;-85
2022/03/04 04:11:43;;;;;;;5.80;1.80;;;;;;;8.13;100.00;101352.09;5082234;28;20408;-85
2022/03/04 04:14:10;;;;;;;3.08;1.10;;;;;;;8.43;100.00;101346.34;5091674;28;20087;-85
2022/03/04 04:16:37;;;;;;;9.75;2.72;;;;;;;8.02;100.00;101350.53;5108016;28;20193;-85
2022/03/04 04:19:04;;;;;;;4.70;1.70;;;;;;;7.97;100.00;101364.53;5090981;28;20048;-85
2022/03/04 04:21:34;;;;;;;7.32;1.60;;;;;;;8.05;100.00;101356.56;5090063;28;20048;-85
2022/03/04 04:24:02;;;;;;;6.50;1.63;;;;;;;8.16;100.00;101359.00;5091119;28;20123;-86
2022/03/04 04:26:28;;;;;;;7.88;2.28;;;;;;;7.89;100.00;101316.84;5091540;28;20048;-86
2022/03/04 04:28:55;;;;;;;7.30;1.50;;;;;;;7.72;100.00;101300.63;5080301;28;20055;-86
2022/03/04 04:31:22;;;;;;;6.10;1.50;;;;;;;7.98;100.00;101331.47;5072175;28;20049;-86
2022/03/04 04:33:49;;;;;;;7.45;1.60;;;;;;;8.02;100.00;101350.53;5072601;28;20467;-86
2022/03/04 04:36:18;;;;;;;3.85;1.40;;;;;;;8.12;100.00;101347.75;5090715;28;20108;-86
2022/03/04 04:38:45;;;;;;;6.70;1.65;;;;;;;7.93;100.00;101352.44;5071148;28;20044;-86
2022/03/04 04:41:12;;;;;;;6.88;3.17;;;;;;;8.14;100.00;101346.00;5081354;28;20048;-86
2022/03/04 04:43:39;;;;;;;5.03;1.55;;;;;;;7.85;100.00;101343.88;5090137;28;20048;-86
2022/03/04 04:46:05;;;;;;;6.20;1.70;;;;;;;8.27;100.00;101353.56;5090882;28;20071;-86
2022/03/04 04:48:32;;;;;;;5.20;1.38;;;;;;;8.42;100.00;101358.56;5094211;28;20095;-86
2022/03/04 04:51:00;;;;;;;5.78;1.70;;;;;;;8.24;100.00;101356.25;5090730;28;20101;-86
2022/03/04 04:53:29;;;;;;;4.38;1.65;;;;;;;7.87;100.00;101356.88;5111202;28;20066;-86
2022/03/04 04:55:56;;;;;;;7.55;1.60;;;;;;;7.90;100.00;101351.63;5095908;28;20050;-86
2022/03/04 04:58:23;;;;;;;4.28;1.20;;;;;;;7.91;100.00;101359.41;5111123;28;20054;-84
2022/03/04 05:00:56;;;;;;;8.68;2.08;;;;;;;8.03;100.00;101360.09;5109972;28;20054;-86
2022/03/04 05:03:23;;;;;;;;;;;;;;;7.75;100.00;101373.59;5095317;28;20123;-86
2022/03/04 05:05:51;;;;;;;5.03;1.23;;;;;;;7.63;100.00;101343.34;5075903;28;19924;-86
2022/03/04 05:08:19;;;;;;;6.63;1.50;;;;;;;7.89;100.00;101374.22;5091023;28;20079;-86
2022/03/04 05:10:46;;;;;;;4.53;1.17;;;;;;;8.00;100.00;101353.19;5093623;28;20079;-86
2022/03/04 05:13:14;;;;;;;6.25;1.90;;;;;;;8.02;100.00;101376.63;5094253;28;20052;-86
2022/03/04 05:15:41;;;;;;;5.90;1.58;;;;;;;7.82;100.00;101358.72;5094259;28;20135;-86
2022/03/04 05:18:08;;;;;;;6.70;1.80;;;;;;;7.82;100.00;101363.94;5094018;28;20543;-86
2022/03/04 05:20:35;;;;;;;5.72;1.35;;;;;;;8.03;100.00;101360.97;5092215;28;20076;-86
2022/03/04 05:23:02;;;;;;;8.52;1.40;;;;;;;7.65;100.00;101372.00;5093210;28;20052;-86
2022/03/04 05:25:29;;;;;;;6.35;1.50;;;;;;;7.53;100.00;101383.50;5093622;28;20139;-86
2022/03/04 05:27:56;;;;;;;4.85;1.40;;;;;;;7.41;100.00;101353.25;5093676;28;20056;-86
2022/03/04 05:30:23;;;;;;;7.30;1.77;;;;;;;7.90;100.00;101378.56;5092600;28;20058;-86
2022/03/04 05:32:50;;;;;;;4.72;1.50;;;;;;;7.40;100.00;101378.44;5094087;28;20132;-86
2022/03/04 05:35:17;;;;;;;4.00;1.10;;;;;;;7.53;100.00;101380.88;5093662;28;20050;-86
2022/03/04 05:37:44;;;;;;;6.90;1.25;;;;;;;7.48;100.00;101370.50;5094132;28;20383;-86
2022/03/04 05:40:11;;;;;;;4.10;1.15;;;;;;;7.51;100.00;101361.81;5109691;28;20068;-86
2022/03/04 05:42:38;;;;;;;2.58;1.20;;;;;;;7.61;100.00;101376.41;5092184;28;20473;-87
2022/03/04 05:45:05;;;;;;;5.22;1.25;;;;;;;7.48;100.00;101377.47;5093960;28;20044;-87
2022/03/04 05:47:32;;;;;;;3.90;1.10;;;;;;;7.36;100.00;101357.66;5093635;28;20148;-87
2022/03/04 05:49:59;;;;;;;3.40;1.23;;;;;;;7.13;100.00;101379.66;5092937;28;20071;-86
2022/03/04 05:52:25;;;;;;;6.30;1.25;;;;;;;7.16;100.00;101384.84;5075032;28;20348;-87
2022/03/04 05:54:52;;;;;;;3.55;1.30;;;;;;;7.37;100.00;101375.88;5088991;28;20047;-86
2022/03/04 05:57:19;;;;;;;4.43;1.00;;;;;;;7.74;100.00;101392.72;5110244;28;20052;-86
2022/03/04 05:59:46;;;;;;;4.00;1.13;;;;;;;7.65;100.00;101378.09;5110632;28;20422;-87
2022/03/04 06:02:12;;;;;;;3.20;1.13;;;;;;;7.40;100.00;101374.97;5093736;28;20051;-85
2022/03/04 06:04:39;;;;;;;4.00;1.10;;;;;;;7.30;100.00;101368.19;5094193;28;20943;-86
2022/03/04 06:07:06;;;;;;;4.95;1.10;;;;;;;7.20;100.00;101370.03;5093386;28;20425;-85
2022/03/04 06:09:34;;;;;;;2.72;1.15;;;;;;;7.31;100.00;101364.69;5092356;28;20050;-84
2022/03/04 06:12:01;;;;;;;5.07;1.38;;;;;;;7.52;100.00;101364.38;5091380;28;20048;-85
2022/03/04 06:14:27;;;;;;;3.50;1.17;;;;;;;7.59;100.00;101381.63;5093457;28;20463;-85
2022/03/04 06:16:54;;;;;;;2.88;1.05;;;;;;;7.43;100.00;101371.47;5093438;28;20125;-86
2022/03/04 06:19:21;;;;;;;2.92;1.02;;;;;;;7.75;100.00;101389.22;5101276;28;20047;-86
2022/03/04 06:21:48;;;;;;;2.17;1.02;;;;;;;7.37;100.00;101344.63;5092211;28;20048;-86
2022/03/04 06:24:15;;;;;;;3.17;1.20;;;;;;;7.41;100.00;101374.09;5093288;28;20105;-86
2022/03/04 06:26:41;;;;;;;4.90;1.30;;;;;;;7.66;100.00;101397.19;5093460;28;20074;-86
2022/03/04 06:29:08;;;;;;;3.20;1.58;;;;;;;7.56;100.00;101388.63;5093149;28;20044;-86
2022/03/04 06:31:35;;;;;;;6.78;2.22;;;;;;;7.61;100.00;101379.00;5089376;28;20058;-86
2022/03/04 06:34:02;;;;;;;5.95;1.30;;;;;;;7.33;100.00;101360.31;5093871;28;20063;-87
2022/03/04 06:36:28;;;;;;;3.22;1.13;;;;;;;7.24;100.00;101387.34;5092761;28;20066;-86
2022/03/04 06:38:55;;;;;;;5.22;1.40;;;;;;;7.39;100.00;101394.94;5081135;28;21004;-86
2022/03/04 06:41:22;;;;;;;6.43;1.67;;;;;;;6.99;100.00;101386.78;5089856;28;20409;-86
2022/03/04 06:43:49;;;;;;;3.45;1.30;;;;;;;7.46;100.00;101381.84;5091022;28;20054;-87
2022/03/04 06:46:16;;;;;;;4.65;1.20;;;;;;;7.28;100.00;101390.75;5091988;28;20075;-86
2022/03/04 06:48:43;;;;;;;6.28;1.52;;;;;;;7.20;100.00;101388.28;5089939;28;20545;-87
2022/03/04 06:51:10;;;;;;;5.78;1.83;;;;;;;7.34;100.00;101398.50;5090562;28;20500;-86
2022/03/04 06:53:37;;;;;;;6.35;1.50;;;;;;;7.11;100.00;101401.41;5091485;28;20702;-87
2022/03/04 06:56:04;;;;;;;4.30;1.55;;;;;;;7.43;100.00;101387.09;5088445;28;20046;-86
2022/03/04 06:58:31;;;;;;;5.82;1.30;;;;;;;7.42;100.00;101407.09;5091525;28;20054;-86
2022/03/04 07:00:58;;;;;;;5.93;1.60;;;;;;;7.30;100.00;101408.09;5090599;28;20093;-86
2022/03/04 07:03:25;;;;;;;5.45;1.40;;;;;;;7.49;100.00;101421.75;5108904;28;20459;-86
2022/03/04 07:05:53;;;;;;;5.75;1.30;;;;;;;7.58;100.00;101419.00;5102372;28;20044;-87
2022/03/04 07:08:19;;;;;;;5.22;1.50;;;;;;;7.48;100.00;101403.53;5091623;28;20048;-87
2022/03/04 07:10:48;;;;;;;7.70;1.50;;;;;;;7.35;100.00;101405.47;5087873;28;20130;-86
2022/03/04 07:13:15;;;;;;;3.30;1.35;;;;;;;7.40;100.00;101412.31;5092702;28;20050;-86
2022/03/04 07:15:42;;;;;;;4.03;1.55;;;;;;;7.89;100.00;101428.13;5091797;28;20056;-86
2022/03/04 07:18:10;;;;;;;5.15;1.48;;;;;;;7.47;100.00;101414.81;5092352;28;20093;-87
2022/03/04 07:20:37;;;;;;;6.53;2.25;;;;;;;7.47;100.00;101401.81;5106583;28;20076;-87
2022/03/04 07:23:05;;;;;;;5.05;1.30;;;;;;;7.40;100.00;101422.75;5091636;28;20482;-87
2022/03/04 07:25:33;;;;;;;4.53;1.45;;;;;;;7.48;100.00;101430.44;5091385;28;20051;-86
2022/03/04 07:28:00;;;;;;;4.97;1.50;;;;;;;7.35;100.00;101421.09;5093879;28;20051;-86
2022/03/04 07:30:26;;;;;;;3.70;1.27;;;;;;;7.54;100.00;101435.59;5105871;28;20052;-87
2022/03/04 07:32:53;;;;;;;5.85;1.60;;;;;;;7.88;100.00;101429.00;5107409;28;20060;-86
2022/03/04 07:35:20;;;;;;;4.47;1.60;;;;;;;7.44;100.00;101420.06;5090590;28;20485;-87
2022/03/04 07:37:47;;;;;;;8.85;2.22;;;;;;;7.60;100.00;101432.88;5090101;28;20044;-87
2022/03/04 07:40:15;;;;;;;6.60;1.67;;;;;;;7.74;100.00;101439.66;5088561;28;20044;-85
2022/03/04 07:42:43;;;;;;;5.80;1.90;;;;;;;7.77;100.00;101436.97;5090999;28;20044;-88
2022/03/04 07:45:11;;;;;;;4.70;1.52;;;;;;;7.65;100.00;101432.81;5090606;28;20102;-86
2022/03/04 07:47:39;;;;;;;7.10;1.83;;;;;;;7.85;100.00;101447.31;5090390;28;20431;-86
2022/03/04 07:50:09;;;;;;;8.35;1.60;;;;;;;7.85;100.00;101455.13;5092392;28;20059;-85
2022/03/04 07:52:36;;;;;;;4.15;1.50;;;;;;;7.67;100.00;101431.06;5085242;28;20058;-86
2022/03/04 07:55:11;;;;;;;4.47;1.70;;;;;;;7.68;100.00;101448.41;5090223;28;20047;-86
2022/03/04 07:57:38;;;;;;;6.85;2.80;;;;;;;7.75;100.00;101443.97;5089241;28;20490;-86
2022/03/04 08:00:08;;;;;;;5.55;1.67;;;;;;;7.96;100.00;101451.47;5090083;28;20738;-86
2022/03/04 08:02:35;;;;;;;7.65;2.22;;;;;;;7.85;100.00;101458.59;5088007;28;20372;-86
2022/03/04 08:05:02;;;;;;;5.57;2.40;;;;;;;7.79;100.00;101438.69;5104142;28;20056;-86
2022/03/04 08:07:29;;;;;;;5.50;1.67;;;;;;;8.25;100.00;101459.72;5090531;28;20047;-85
2022/03/04 08:09:56;;;;;;;7.20;2.00;;;;;;;7.89;100.00;101435.94;5090738;28;20123;-86
2022/03/04 08:12:23;;;;;;;4.35;1.70;;;;;;;7.79;100.00;101443.03;5088469;28;20048;-87
2022/03/04 08:14:50;;;;;;;8.40;2.30;;;;;;;7.60;100.00;101466.75;5107905;28;20052;-86
2022/03/04 08:17:16;;;;;;;7.47;2.05;;;;;;;7.72;100.00;101452.72;5093586;28;20458;-86
2022/03/04 08:19:43;;;;;;;7.82;1.77;;;;;;;7.73;100.00;101450.94;5088035;28;20048;-87
2022/03/04 08:22:10;;;;;;;6.43;1.95;;;;;;;8.03;100.00;101464.44;5098347;28;20127;-87
2022/03/04 08:24:52;;;;;;;4.75;1.60;;;;;;;8.18;100.00;101466.81;5091756;28;20145;-86
2022/03/04 08:27:19;;;;;;;5.40;1.50;;;;;;;7.84;100.00;101458.63;5107395;28;20456;-87
2022/03/04 08:29:46;;;;;;;9.13;1.92;;;;;;;7.90;100.00;101467.22;5091801;28;20131;-86
2022/03/04 08:32:12;;;;;;;8.30;2.03;;;;;;;8.05;100.00;101466.09;5089652;28;20079;-87
2022/03/04 08:34:39;;;;;;;7.10;2.10;;;;;;;8.08;100.00;101467.81;5091558;28;20051;-87
2022/03/04 08:37:06;;;;;;;4.47;1.60;;;;;;;8.37;100.00;101464.72;5091042;28;20062;-87
2022/03/04 08:39:33;;;;;;;10.63;2.00;;;;;;;8.21;100.00;101489.34;5090822;28;20105;-85
2022/03/04 08:42:06;;;;;;;8.30;1.80;;;;;;;8.06;100.00;101467.84;5089296;28;20123;-86
2022/03/04 08:44:33;;;;;;;6.90;2.00;;;;;;;8.23;100.00;101472.78;5089728;28;20058;-86
2022/03/04 08:47:00;;;;;;;8.75;1.92;;;;;;;7.84;100.00;101469.91;5091375;28;20478;-88
2022/03/04 08:49:27;;;;;;;6.32;1.65;;;;;;;8.37;100.00;101480.38;5083854;28;20044;-87
2022/03/04 08:51:54;;;;;;;13.98;2.63;;;;;;;8.14;100.00;101472.94;5093214;28;20044;-87
2022/03/04 08:54:20;;;;;;;11.90;3.30;;;;;;;7.86;100.00;101467.28;5086957;28;20056;-87
2022/03/04 08:56:47;;;;;;;6.10;1.90;;;;;;;8.16;100.00;101477.25;5091086;28;20040;-86
2022/03/04 08:59:14;;;;;;;12.23;2.17;;;;;;;8.19;100.00;101476.34;5087315;28;20044;-85
2022/03/04 09:01:40;;;;;;;8.35;2.88;;;;;;;8.21;100.00;101490.22;5082352;28;20048;-87
2022/03/04 09:04:08;;;;;;;5.47;1.45;;;;;;;8.14;100.00;101485.97;5084413;28;20055;-87
2022/03/04 09:10:23;;;;;;;10.27;2.17;;;;;;;8.39;100.00;101478.59;5075145;28;20038;-85
2022/03/04 09:12:49;;;;;;;11.35;2.53;;;;;;;8.16;100.00;101490.31;5085522;28;20142;-87
2022/03/04 09:15:16;;;;;;;6.72;2.03;;;;;;;7.87;100.00;101458.56;5087386;28;20056;-87
2022/03/04 09:17:43;;;;;;;11.02;2.00;;;;;;;8.10;100.00;101495.59;5089625;28;20056;-87
2022/03/04 09:20:11;;;;;;;9.27;2.15;;;;;;;8.28;100.00;101483.16;5089449;28;20101;-87
2022/03/04 09:22:37;;;;;;;8.38;2.13;;;;;;;8.17;100.00;101504.19;5090582;28;20062;-88
2022/03/04 09:25:05;;;;;;;10.60;3.03;;;;;;;8.11;100.00;101489.50;5089809;28;20404;-88
2022/03/04 09:27:32;;;;;;;7.40;2.17;;;;;;;8.31;100.00;101509.22;5089910;28;20066;-88
2022/03/04 09:29:59;;;;;;;8.52;2.00;;;;;;;8.40;100.00;101487.31;5102659;28;20569;-88
2022/03/04 09:32:26;;;;;;;6.65;1.63;;;;;;;8.41;100.00;101499.47;5089200;28;20130;-86
2022/03/04 09:34:52;;;;;;;11.73;2.88;;;;;;;8.18;100.00;101492.88;5087421;28;20130;-88
2022/03/04 09:37:19;;;;;;;6.32;1.92;;;;;;;8.38;100.00;101517.81;5094565;28;20075;-88
2022/03/04 09:39:46;;;;;;;7.55;1.75;;;;;;;8.27;100.00;101505.78;5093841;28;20474;-88
2022/03/04 09:42:13;;;;;;;12.68;2.65;;;;;;;7.97;100.00;101507.09;5089526;28;20067;-85
2022/03/04 09:44:40;;;;;;;6.05;1.83;;;;;;;8.22;100.00;101512.81;5093055;28;20048;-88
2022/03/04 09:47:09;;;;;;;12.45;2.40;;;;;;;7.85;100.00;101517.72;5090725;28;20477;-87
2022/03/04 09:49:37;;;;;;;12.75;3.38;;;;;;;7.61;100.00;101509.31;5091643;28;20051;-87
2022/03/04 09:52:05;;;;;;;7.00;1.92;;;;;;;7.84;100.00;101501.19;5092142;28;20048;-88
2022/03/04 09:54:32;;;;;;;8.98;2.70;;;;;;;8.08;100.00;101488.69;5091411;28;20720;-88
2022/03/04 09:57:00;;;;;;;8.27;2.42;;;;;;;8.57;100.00;101502.72;5093349;28;20051;-88
2022/03/04 09:59:27;;;;;;;7.65;1.60;;;;;;;8.90;100.00;101509.94;5091299;28;20051;-86
2022/03/04 10:01:57;;;;;;;10.27;2.50;;;;;;;8.17;100.00;101501.59;5077130;28;20064;-86
2022/03/04 10:04:28;;;;;;;10.55;2.33;;;;;;;8.34;100.00;101506.56;5091911;28;20044;-86
2022/03/04 10:06:55;;;;;;;9.20;2.22;;;;;;;7.91;100.00;101507.19;5092901;28;20044;-88
2022/03/04 10:09:42;;;;;;;12.93;3.97;;;;;;;8.27;100.00;101507.50;5088748;28;20671;-89
2022/03/04 10:12:11;;;;;;;11.18;2.50;;;;;;;8.25;100.00;101519.72;5091479;28;20051;-89
2022/03/04 10:15:02;;;;;;;7.82;2.15;;;;;;;8.16;100.00;101507.69;5092832;28;20132;-88
2022/03/04 10:17:32;;;;;;;10.93;3.10;;;;;;;7.77;100.00;101512.59;5091132;28;20125;-90
2022/03/04 10:20:01;;;;;;;10.00;2.85;;;;;;;7.84;100.00;101495.97;5089431;28;20048;-89
2022/03/04 10:22:37;;;;;;;10.30;2.63;;;;;;;8.02;100.00;101507.03;5081783;28;20051;-88
2022/03/04 10:25:22;;;;;;;18.77;2.75;;;;;;;7.84;100.00;101510.75;5106216;28;20052;-89
2022/03/04 10:27:49;;;;;;;10.50;2.33;;;;;;;7.40;100.00;101492.19;5087075;28;20077;-89
2022/03/04 10:30:28;;;;;;;6.28;1.95;;;;;;;7.22;100.00;101501.09;5091811;28;20150;-89
2022/03/04 10:33:11;;;;;;;9.30;2.05;;;;;;;7.90;100.00;101514.16;5104666;28;20470;-89
2022/03/04 10:35:38;;;;;;;8.02;2.17;;;;;;;7.57;100.00;101492.84;5088931;28;20517;-89
2022/03/04 10:38:05;;;;;;;9.35;2.08;;;;;;;7.65;100.00;101505.81;5093664;28;20461;-90
2022/03/04 10:40:34;;;;;;;9.55;2.70;;;;;;;7.46;100.00;101515.59;5091956;28;20044;-89
2022/03/04 10:43:05;;;;;;;7.07;1.85;;;;;;;7.65;100.00;101520.56;5087846;28;20075;-90
2022/03/04 10:45:40;;;;;;;9.70;2.72;;;;;;;7.63;100.00;101527.53;5091507;28;20196;-90
2022/03/04 10:48:15;;;;;;;5.68;1.63;;;;;;;8.00;100.00;101501.81;5088533;28;20062;-89
2022/03/04 10:50:44;;;;;;;11.63;2.13;;;;;;;7.80;100.00;101520.38;5081003;28;20056;-90
2022/03/04 10:53:25;;;;;;;7.20;2.20;;;;;;;7.85;100.00;101492.50;5091451;28;20420;-89
2022/03/04 10:55:56;;;;;;;7.20;1.70;;;;;;;7.80;100.00;101522.97;5091351;28;20533;-89
2022/03/04 10:58:33;;;;;;;9.98;2.25;;;;;;;7.66;100.00;101523.16;5092298;28;20082;-90
2022/03/04 11:01:10;;;;;;;9.40;2.53;;;;;;;7.73;100.00;101516.13;5092274;28;20051;-90
2022/03/04 11:03:39;;;;;;;8.07;1.77;;;;;;;8.15;100.00;101526.84;5089306;28;20453;-90
2022/03/04 11:06:09;;;;;;;9.93;2.28;;;;;;;7.93;100.00;101521.06;5091610;28;20049;-90
2022/03/04 11:08:36;;;;;;;12.48;2.53;;;;;;;7.84;100.00;101521.19;5092736;28;20059;-89
2022/03/04 11:11:04;;;;;;;10.32;2.10;;;;;;;7.95;100.00;101534.94;5092933;28;20047;-88
2022/03/04 11:13:33;;;;;;;8.07;1.80;;;;;;;7.73;100.00;101510.91;5092917;28;20056;-90
2022/03/04 11:16:02;;;;;;;11.45;2.00;;;;;;;7.73;100.00;101526.56;5083585;28;20068;-90
2022/03/04 11:18:29;;;;;;;12.45;2.42;;;;;;;7.77;100.00;101539.53;5088800;28;20059;-89
2022/03/04 11:21:00;;;;;;;8.82;2.28;;;;;;;7.37;100.00;101549.59;5106971;28;20496;-90
2022/03/04 11:23:35;;;;;;;9.07;2.17;;;;;;;7.79;100.00;101516.03;5091564;28;20442;-90
2022/03/04 11:26:31;;;;;;;5.97;2.40;;;;;;;7.82;100.00;101536.00;5108471;28;20048;-90
2022/03/04 11:29:02;;;;;;;5.65;1.95;;;;;;;8.33;100.00;101530.91;5080870;28;20058;-89
2022/03/04 11:31:30;;;;;;;7.03;2.00;;;;;;;7.71;100.00;101533.53;5083887;28;20463;-86